sensor_id;sensor_type;location;lat;lon;timestamp;temperature;humidity
56727;DHT22;42609;52.700;6.236;2022-07-23T00:00:46;16.80;99.90
56727;DHT22;42609;52.700;6.236;2022-07-23T00:03:12;16.80;99.90
56727;DHT22;42609;52.700;6.236;2022-07-23T00:05:38;16.80;99.90
56727;DHT22;42609;52.700;6.236;2022-07-23T00:08:05;16.70;99.90
56727;DHT22;42609;52.700;6.236;2022-07-23T00:10:31;16.70;99.90
56727;DHT22;42609;52.700;6.236;2022-07-23T00:12:57;16.60;99.90
56727;DHT22;42609;52.700;6.236;2022-07-23T00:15:23;16.60;99.90
56727;DHT22;42609;52.700;6.236;2022-07-23T00:17:48;16.50;99.90
56727;DHT22;42609;52.700;6.236;2022-07-23T00:20:14;16.50;99.90
56727;DHT22;42609;52.700;6.236;2022-07-23T00:22:51;16.50;99.90
56727;DHT22;42609;52.700;6.236;2022-07-23T00:25:17;16.50;99.90
56727;DHT22;42609;52.700;6.236;2022-07-23T00:27:44;16.50;99.90
56727;DHT22;42609;52.700;6.236;2022-07-23T00:30:10;16.40;99.90
56727;DHT22;42609;52.700;6.236;2022-07-23T00:32:52;16.40;99.90
56727;DHT22;42609;52.700;6.236;2022-07-23T00:35:22;16.30;99.90
56727;DHT22;42609;52.700;6.236;2022-07-23T00:37:48;16.30;99.90
56727;DHT22;42609;52.700;6.236;2022-07-23T00:40:15;16.30;99.90
56727;DHT22;42609;52.700;6.236;2022-07-23T00:42:41;16.20;99.90
56727;DHT22;42609;52.700;6.236;2022-07-23T00:45:07;16.20;99.90
56727;DHT22;42609;52.700;6.236;2022-07-23T00:47:33;16.20;99.90
56727;DHT22;42609;52.700;6.236;2022-07-23T00:49:59;16.10;99.90
56727;DHT22;42609;52.700;6.236;2022-07-23T00:52:24;16.10;99.90
56727;DHT22;42609;52.700;6.236;2022-07-23T00:54:50;16.10;99.90
56727;DHT22;42609;52.700;6.236;2022-07-23T00:57:16;16.10;99.90
56727;DHT22;42609;52.700;6.236;2022-07-23T00:59:43;16.00;99.90
56727;DHT22;42609;52.700;6.236;2022-07-23T01:02:08;16.00;99.90
56727;DHT22;42609;52.700;6.236;2022-07-23T01:04:34;16.00;99.90
56727;DHT22;42609;52.700;6.236;2022-07-23T01:07:00;16.00;99.90
56727;DHT22;42609;52.700;6.236;2022-07-23T01:09:26;15.90;99.90
56727;DHT22;42609;52.700;6.236;2022-07-23T01:11:54;15.90;99.90
56727;DHT22;42609;52.700;6.236;2022-07-23T01:14:21;15.90;99.90
56727;DHT22;42609;52.700;6.236;2022-07-23T01:16:48;15.80;99.90
56727;DHT22;42609;52.700;6.236;2022-07-23T01:19:16;15.80;99.90
56727;DHT22;42609;52.700;6.236;2022-07-23T01:21:44;15.80;99.90
56727;DHT22;42609;52.700;6.236;2022-07-23T01:24:11;15.80;99.90
56727;DHT22;42609;52.700;6.236;2022-07-23T01:26:38;15.70;99.90
56727;DHT22;42609;52.700;6.236;2022-07-23T01:29:04;15.70;99.90
56727;DHT22;42609;52.700;6.236;2022-07-23T01:31:31;15.70;99.90
56727;DHT22;42609;52.700;6.236;2022-07-23T01:33:56;15.60;99.90
56727;DHT22;42609;52.700;6.236;2022-07-23T01:36:22;15.60;99.90
56727;DHT22;42609;52.700;6.236;2022-07-23T01:38:48;15.60;99.90
56727;DHT22;42609;52.700;6.236;2022-07-23T01:41:13;15.60;99.90
56727;DHT22;42609;52.700;6.236;2022-07-23T01:43:39;15.50;99.90
56727;DHT22;42609;52.700;6.236;2022-07-23T01:46:05;15.50;99.90
56727;DHT22;42609;52.700;6.236;2022-07-23T01:48:31;15.50;99.90
56727;DHT22;42609;52.700;6.236;2022-07-23T01:50:56;15.50;99.90
56727;DHT22;42609;52.700;6.236;2022-07-23T01:53:22;15.50;99.90
56727;DHT22;42609;52.700;6.236;2022-07-23T01:55:47;15.40;99.90
56727;DHT22;42609;52.700;6.236;2022-07-23T01:58:13;15.40;99.90
56727;DHT22;42609;52.700;6.236;2022-07-23T02:00:39;15.40;99.90
56727;DHT22;42609;52.700;6.236;2022-07-23T02:03:04;15.40;99.90
56727;DHT22;42609;52.700;6.236;2022-07-23T02:05:30;15.40;99.90
56727;DHT22;42609;52.700;6.236;2022-07-23T02:07:57;15.30;99.90
56727;DHT22;42609;52.700;6.236;2022-07-23T02:10:24;15.30;99.90
56727;DHT22;42609;52.700;6.236;2022-07-23T02:12:50;15.30;99.90
56727;DHT22;42609;52.700;6.236;2022-07-23T02:15:15;15.30;99.90
56727;DHT22;42609;52.700;6.236;2022-07-23T02:17:41;15.30;99.90
56727;DHT22;42609;52.700;6.236;2022-07-23T02:20:08;15.30;99.90
56727;DHT22;42609;52.700;6.236;2022-07-23T02:22:34;15.30;99.90
56727;DHT22;42609;52.700;6.236;2022-07-23T02:24:59;15.30;99.90
56727;DHT22;42609;52.700;6.236;2022-07-23T02:27:25;15.30;99.90
56727;DHT22;42609;52.700;6.236;2022-07-23T02:29:50;15.40;99.90
56727;DHT22;42609;52.700;6.236;2022-07-23T02:32:16;15.30;99.90
56727;DHT22;42609;52.700;6.236;2022-07-23T02:34:42;15.40;99.90
56727;DHT22;42609;52.700;6.236;2022-07-23T02:37:08;15.40;99.90
56727;DHT22;42609;52.700;6.236;2022-07-23T02:39:34;15.30;99.90
56727;DHT22;42609;52.700;6.236;2022-07-23T02:42:00;15.20;99.90
56727;DHT22;42609;52.700;6.236;2022-07-23T02:44:26;15.20;99.90
56727;DHT22;42609;52.700;6.236;2022-07-23T02:46:52;15.20;99.90
56727;DHT22;42609;52.700;6.236;2022-07-23T02:49:17;15.20;99.90
56727;DHT22;42609;52.700;6.236;2022-07-23T02:51:43;15.10;99.90
56727;DHT22;42609;52.700;6.236;2022-07-23T02:54:08;15.10;99.90
56727;DHT22;42609;52.700;6.236;2022-07-23T02:56:34;15.00;99.90
56727;DHT22;42609;52.700;6.236;2022-07-23T02:58:59;15.10;99.90
56727;DHT22;42609;52.700;6.236;2022-07-23T03:01:25;15.10;99.90
56727;DHT22;42609;52.700;6.236;2022-07-23T03:03:51;15.00;99.90
56727;DHT22;42609;52.700;6.236;2022-07-23T03:06:17;14.90;99.90
56727;DHT22;42609;52.700;6.236;2022-07-23T03:08:42;14.90;99.90
56727;DHT22;42609;52.700;6.236;2022-07-23T03:11:08;14.90;99.90
56727;DHT22;42609;52.700;6.236;2022-07-23T03:13:40;14.90;99.90
56727;DHT22;42609;52.700;6.236;2022-07-23T03:16:06;14.80;99.90
56727;DHT22;42609;52.700;6.236;2022-07-23T03:18:32;14.80;99.90
56727;DHT22;42609;52.700;6.236;2022-07-23T03:20:58;14.80;99.90
56727;DHT22;42609;52.700;6.236;2022-07-23T03:23:24;14.80;99.90
56727;DHT22;42609;52.700;6.236;2022-07-23T03:25:50;14.70;99.90
56727;DHT22;42609;52.700;6.236;2022-07-23T03:28:16;14.70;99.90
56727;DHT22;42609;52.700;6.236;2022-07-23T03:30:43;14.70;99.90
56727;DHT22;42609;52.700;6.236;2022-07-23T03:33:09;14.70;99.90
56727;DHT22;42609;52.700;6.236;2022-07-23T03:35:34;14.60;99.90
56727;DHT22;42609;52.700;6.236;2022-07-23T03:38:00;14.60;99.90
56727;DHT22;42609;52.700;6.236;2022-07-23T03:40:25;14.60;99.90
56727;DHT22;42609;52.700;6.236;2022-07-23T03:42:51;14.60;99.90
56727;DHT22;42609;52.700;6.236;2022-07-23T03:45:16;14.60;99.90
56727;DHT22;42609;52.700;6.236;2022-07-23T03:47:42;14.50;99.90
56727;DHT22;42609;52.700;6.236;2022-07-23T03:50:09;14.60;99.90
56727;DHT22;42609;52.700;6.236;2022-07-23T03:52:35;14.60;99.90
56727;DHT22;42609;52.700;6.236;2022-07-23T03:55:01;14.50;99.90
56727;DHT22;42609;52.700;6.236;2022-07-23T03:57:27;14.50;99.90
56727;DHT22;42609;52.700;6.236;2022-07-23T03:59:53;14.50;99.90
56727;DHT22;42609;52.700;6.236;2022-07-23T04:02:18;14.60;99.90
56727;DHT22;42609;52.700;6.236;2022-07-23T04:04:44;14.50;99.90
56727;DHT22;42609;52.700;6.236;2022-07-23T04:07:09;14.50;99.90
56727;DHT22;42609;52.700;6.236;2022-07-23T04:09:35;14.50;99.90
56727;DHT22;42609;52.700;6.236;2022-07-23T04:12:00;14.60;99.90
56727;DHT22;42609;52.700;6.236;2022-07-23T04:14:26;14.60;99.90
56727;DHT22;42609;52.700;6.236;2022-07-23T04:16:52;14.60;99.90
56727;DHT22;42609;52.700;6.236;2022-07-23T04:19:17;14.60;99.90
56727;DHT22;42609;52.700;6.236;2022-07-23T04:21:43;14.60;99.90
56727;DHT22;42609;52.700;6.236;2022-07-23T04:24:08;14.70;99.90
56727;DHT22;42609;52.700;6.236;2022-07-23T04:26:34;14.80;99.90
56727;DHT22;42609;52.700;6.236;2022-07-23T04:29:00;14.90;99.90
56727;DHT22;42609;52.700;6.236;2022-07-23T04:31:25;15.00;99.90
56727;DHT22;42609;52.700;6.236;2022-07-23T04:33:51;15.00;99.90
56727;DHT22;42609;52.700;6.236;2022-07-23T04:36:16;15.00;99.90
56727;DHT22;42609;52.700;6.236;2022-07-23T04:38:42;15.00;99.90
56727;DHT22;42609;52.700;6.236;2022-07-23T04:41:07;15.00;99.90
56727;DHT22;42609;52.700;6.236;2022-07-23T04:43:33;15.00;99.90
56727;DHT22;42609;52.700;6.236;2022-07-23T04:45:58;15.20;99.90
56727;DHT22;42609;52.700;6.236;2022-07-23T04:48:24;15.20;99.90
56727;DHT22;42609;52.700;6.236;2022-07-23T04:50:50;15.30;99.90
56727;DHT22;42609;52.700;6.236;2022-07-23T04:53:15;15.40;99.90
56727;DHT22;42609;52.700;6.236;2022-07-23T04:55:41;15.50;99.90
56727;DHT22;42609;52.700;6.236;2022-07-23T04:58:06;15.50;99.90
56727;DHT22;42609;52.700;6.236;2022-07-23T05:00:32;15.60;99.90
56727;DHT22;42609;52.700;6.236;2022-07-23T05:02:58;15.60;99.90
56727;DHT22;42609;52.700;6.236;2022-07-23T05:05:23;15.70;99.90
56727;DHT22;42609;52.700;6.236;2022-07-23T05:07:49;15.80;99.90
56727;DHT22;42609;52.700;6.236;2022-07-23T05:10:14;15.80;99.90
56727;DHT22;42609;52.700;6.236;2022-07-23T05:12:40;15.90;99.90
56727;DHT22;42609;52.700;6.236;2022-07-23T05:15:06;16.00;99.90
56727;DHT22;42609;52.700;6.236;2022-07-23T05:17:31;16.20;99.90
56727;DHT22;42609;52.700;6.236;2022-07-23T05:19:57;16.20;99.90
56727;DHT22;42609;52.700;6.236;2022-07-23T05:22:22;16.30;99.90
56727;DHT22;42609;52.700;6.236;2022-07-23T05:24:48;16.40;99.90
56727;DHT22;42609;52.700;6.236;2022-07-23T05:27:13;16.60;99.90
56727;DHT22;42609;52.700;6.236;2022-07-23T05:29:39;16.60;99.90
56727;DHT22;42609;52.700;6.236;2022-07-23T05:32:05;16.80;99.90
56727;DHT22;42609;52.700;6.236;2022-07-23T05:34:30;16.80;99.90
56727;DHT22;42609;52.700;6.236;2022-07-23T05:36:56;17.00;99.90
56727;DHT22;42609;52.700;6.236;2022-07-23T05:39:21;17.00;99.90
56727;DHT22;42609;52.700;6.236;2022-07-23T05:41:47;17.20;99.90
56727;DHT22;42609;52.700;6.236;2022-07-23T05:44:13;17.30;99.90
56727;DHT22;42609;52.700;6.236;2022-07-23T05:46:38;17.50;99.90
56727;DHT22;42609;52.700;6.236;2022-07-23T05:49:04;17.60;99.90
56727;DHT22;42609;52.700;6.236;2022-07-23T05:51:29;17.80;99.90
56727;DHT22;42609;52.700;6.236;2022-07-23T05:53:55;17.90;99.90
56727;DHT22;42609;52.700;6.236;2022-07-23T05:56:20;18.00;99.90
56727;DHT22;42609;52.700;6.236;2022-07-23T05:58:46;18.00;99.90
56727;DHT22;42609;52.700;6.236;2022-07-23T06:01:12;18.20;99.90
56727;DHT22;42609;52.700;6.236;2022-07-23T06:03:38;18.20;99.90
56727;DHT22;42609;52.700;6.236;2022-07-23T06:06:04;18.30;99.90
56727;DHT22;42609;52.700;6.236;2022-07-23T06:08:30;18.20;99.90
56727;DHT22;42609;52.700;6.236;2022-07-23T06:10:55;18.40;99.90
56727;DHT22;42609;52.700;6.236;2022-07-23T06:13:21;18.50;99.90
56727;DHT22;42609;52.700;6.236;2022-07-23T06:15:47;18.60;99.90
56727;DHT22;42609;52.700;6.236;2022-07-23T06:18:12;18.70;99.90
56727;DHT22;42609;52.700;6.236;2022-07-23T06:20:38;18.70;99.90
56727;DHT22;42609;52.700;6.236;2022-07-23T06:23:03;18.80;99.90
56727;DHT22;42609;52.700;6.236;2022-07-23T06:25:29;18.80;99.90
56727;DHT22;42609;52.700;6.236;2022-07-23T06:27:55;18.80;99.90
56727;DHT22;42609;52.700;6.236;2022-07-23T06:30:20;18.90;99.90
56727;DHT22;42609;52.700;6.236;2022-07-23T06:32:47;19.10;99.90
56727;DHT22;42609;52.700;6.236;2022-07-23T06:35:13;19.20;99.90
56727;DHT22;42609;52.700;6.236;2022-07-23T06:37:39;19.20;99.90
56727;DHT22;42609;52.700;6.236;2022-07-23T06:40:05;19.40;99.90
56727;DHT22;42609;52.700;6.236;2022-07-23T06:42:31;19.40;99.90
56727;DHT22;42609;52.700;6.236;2022-07-23T06:44:56;19.40;99.90
56727;DHT22;42609;52.700;6.236;2022-07-23T06:47:22;19.50;99.90
56727;DHT22;42609;52.700;6.236;2022-07-23T06:49:48;19.50;99.90
56727;DHT22;42609;52.700;6.236;2022-07-23T06:52:14;19.60;99.90
56727;DHT22;42609;52.700;6.236;2022-07-23T06:54:39;19.70;99.90
56727;DHT22;42609;52.700;6.236;2022-07-23T06:57:05;19.80;99.90
56727;DHT22;42609;52.700;6.236;2022-07-23T06:59:31;20.00;99.90
56727;DHT22;42609;52.700;6.236;2022-07-23T07:01:56;19.90;99.90
56727;DHT22;42609;52.700;6.236;2022-07-23T07:04:23;19.80;99.90
56727;DHT22;42609;52.700;6.236;2022-07-23T07:06:49;19.80;99.90
56727;DHT22;42609;52.700;6.236;2022-07-23T07:09:14;19.90;99.90
56727;DHT22;42609;52.700;6.236;2022-07-23T07:11:40;19.90;99.90
56727;DHT22;42609;52.700;6.236;2022-07-23T07:14:05;19.90;99.90
56727;DHT22;42609;52.700;6.236;2022-07-23T07:16:32;19.90;99.90
56727;DHT22;42609;52.700;6.236;2022-07-23T07:18:57;19.90;99.90
56727;DHT22;42609;52.700;6.236;2022-07-23T07:21:23;19.90;99.90
56727;DHT22;42609;52.700;6.236;2022-07-23T07:23:49;19.90;99.90
56727;DHT22;42609;52.700;6.236;2022-07-23T07:26:14;20.10;99.90
56727;DHT22;42609;52.700;6.236;2022-07-23T07:28:40;20.10;99.90
56727;DHT22;42609;52.700;6.236;2022-07-23T07:31:06;20.10;99.90
56727;DHT22;42609;52.700;6.236;2022-07-23T07:33:31;20.20;99.90
56727;DHT22;42609;52.700;6.236;2022-07-23T07:35:57;20.10;99.90
56727;DHT22;42609;52.700;6.236;2022-07-23T07:38:22;20.40;99.90
56727;DHT22;42609;52.700;6.236;2022-07-23T07:40:48;20.40;99.90
56727;DHT22;42609;52.700;6.236;2022-07-23T07:43:13;20.60;99.90
56727;DHT22;42609;52.700;6.236;2022-07-23T07:45:39;20.70;99.90
56727;DHT22;42609;52.700;6.236;2022-07-23T07:48:05;20.70;99.90
56727;DHT22;42609;52.700;6.236;2022-07-23T07:50:31;20.70;99.90
56727;DHT22;42609;52.700;6.236;2022-07-23T07:52:56;20.90;99.90
56727;DHT22;42609;52.700;6.236;2022-07-23T07:55:22;21.10;99.90
56727;DHT22;42609;52.700;6.236;2022-07-23T07:57:47;21.20;99.90
56727;DHT22;42609;52.700;6.236;2022-07-23T08:00:13;21.20;99.90
56727;DHT22;42609;52.700;6.236;2022-07-23T08:02:50;21.20;99.90
56727;DHT22;42609;52.700;6.236;2022-07-23T08:05:24;21.30;99.90
56727;DHT22;42609;52.700;6.236;2022-07-23T08:07:50;21.20;99.90
56727;DHT22;42609;52.700;6.236;2022-07-23T08:10:16;21.20;99.90
56727;DHT22;42609;52.700;6.236;2022-07-23T08:12:50;20.90;99.90
56727;DHT22;42609;52.700;6.236;2022-07-23T08:15:18;20.60;99.90
56727;DHT22;42609;52.700;6.236;2022-07-23T08:17:46;20.40;99.90
56727;DHT22;42609;52.700;6.236;2022-07-23T08:20:13;20.60;99.90
56727;DHT22;42609;52.700;6.236;2022-07-23T08:23:00;20.70;99.90
56727;DHT22;42609;52.700;6.236;2022-07-23T08:25:33;21.10;99.90
56727;DHT22;42609;52.700;6.236;2022-07-23T08:28:00;21.40;99.90
56727;DHT22;42609;52.700;6.236;2022-07-23T08:30:27;21.60;99.90
56727;DHT22;42609;52.700;6.236;2022-07-23T08:33:00;21.40;99.50
56727;DHT22;42609;52.700;6.236;2022-07-23T08:35:30;21.20;99.40
56727;DHT22;42609;52.700;6.236;2022-07-23T08:37:57;21.00;99.40
56727;DHT22;42609;52.700;6.236;2022-07-23T08:40:25;20.90;99.30
56727;DHT22;42609;52.700;6.236;2022-07-23T08:42:51;21.00;99.30
56727;DHT22;42609;52.700;6.236;2022-07-23T08:45:19;21.10;99.20
56727;DHT22;42609;52.700;6.236;2022-07-23T08:47:57;21.00;99.10
56727;DHT22;42609;52.700;6.236;2022-07-23T08:50:26;21.00;99.40
56727;DHT22;42609;52.700;6.236;2022-07-23T08:52:52;20.90;99.70
56727;DHT22;42609;52.700;6.236;2022-07-23T08:55:20;20.70;99.60
56727;DHT22;42609;52.700;6.236;2022-07-23T08:57:49;20.60;99.70
56727;DHT22;42609;52.700;6.236;2022-07-23T09:00:16;20.90;99.60
56727;DHT22;42609;52.700;6.236;2022-07-23T09:02:43;21.30;99.00
56727;DHT22;42609;52.700;6.236;2022-07-23T09:05:11;21.60;98.80
56727;DHT22;42609;52.700;6.236;2022-07-23T09:07:38;21.60;98.20
56727;DHT22;42609;52.700;6.236;2022-07-23T09:10:23;21.60;97.90
56727;DHT22;42609;52.700;6.236;2022-07-23T09:12:48;21.50;97.60
56727;DHT22;42609;52.700;6.236;2022-07-23T09:15:14;21.50;97.70
56727;DHT22;42609;52.700;6.236;2022-07-23T09:17:41;21.60;97.70
56727;DHT22;42609;52.700;6.236;2022-07-23T09:20:13;21.60;97.20
56727;DHT22;42609;52.700;6.236;2022-07-23T09:22:48;21.70;96.60
56727;DHT22;42609;52.700;6.236;2022-07-23T09:25:16;21.90;96.60
56727;DHT22;42609;52.700;6.236;2022-07-23T09:27:50;22.10;95.70
56727;DHT22;42609;52.700;6.236;2022-07-23T09:30:18;22.30;94.90
56727;DHT22;42609;52.700;6.236;2022-07-23T09:32:43;22.50;94.00
56727;DHT22;42609;52.700;6.236;2022-07-23T09:35:09;22.80;93.90
56727;DHT22;42609;52.700;6.236;2022-07-23T09:37:35;22.90;93.60
56727;DHT22;42609;52.700;6.236;2022-07-23T09:40:09;23.00;93.00
56727;DHT22;42609;52.700;6.236;2022-07-23T09:42:37;22.80;92.80
56727;DHT22;42609;52.700;6.236;2022-07-23T09:45:03;22.80;92.90
56727;DHT22;42609;52.700;6.236;2022-07-23T09:47:31;22.60;92.70
56727;DHT22;42609;52.700;6.236;2022-07-23T09:50:04;22.70;93.00
56727;DHT22;42609;52.700;6.236;2022-07-23T09:52:52;22.70;93.20
56727;DHT22;42609;52.700;6.236;2022-07-23T09:55:18;22.70;92.60
56727;DHT22;42609;52.700;6.236;2022-07-23T09:57:45;22.90;92.60
56727;DHT22;42609;52.700;6.236;2022-07-23T10:00:12;23.10;92.30
56727;DHT22;42609;52.700;6.236;2022-07-23T10:02:39;23.00;91.60
56727;DHT22;42609;52.700;6.236;2022-07-23T10:05:06;23.00;91.10
56727;DHT22;42609;52.700;6.236;2022-07-23T10:07:35;22.90;90.70
56727;DHT22;42609;52.700;6.236;2022-07-23T10:10:04;23.10;90.90
56727;DHT22;42609;52.700;6.236;2022-07-23T10:12:31;23.40;91.70
56727;DHT22;42609;52.700;6.236;2022-07-23T10:15:06;23.40;90.80
56727;DHT22;42609;52.700;6.236;2022-07-23T10:17:32;23.10;90.50
56727;DHT22;42609;52.700;6.236;2022-07-23T10:19:58;22.80;90.50
56727;DHT22;42609;52.700;6.236;2022-07-23T10:22:26;22.90;91.30
56727;DHT22;42609;52.700;6.236;2022-07-23T10:25:00;23.00;90.80
56727;DHT22;42609;52.700;6.236;2022-07-23T10:27:47;23.10;90.50
56727;DHT22;42609;52.700;6.236;2022-07-23T10:30:33;23.20;90.10
56727;DHT22;42609;52.700;6.236;2022-07-23T10:33:26;23.30;90.50
56727;DHT22;42609;52.700;6.236;2022-07-23T10:36:23;23.30;90.40
56727;DHT22;42609;52.700;6.236;2022-07-23T10:38:56;23.60;90.40
56727;DHT22;42609;52.700;6.236;2022-07-23T10:41:36;23.60;89.80
56727;DHT22;42609;52.700;6.236;2022-07-23T10:44:11;23.50;90.00
56727;DHT22;42609;52.700;6.236;2022-07-23T10:47:04;23.30;90.50
56727;DHT22;42609;52.700;6.236;2022-07-23T10:49:46;23.60;90.30
56727;DHT22;42609;52.700;6.236;2022-07-23T10:57:10;24.10;88.70
56727;DHT22;42609;52.700;6.236;2022-07-23T11:02:32;24.20;86.90
56727;DHT22;42609;52.700;6.236;2022-07-23T11:07:31;23.90;87.00
56727;DHT22;42609;52.700;6.236;2022-07-23T11:09:57;23.90;87.00
56727;DHT22;42609;52.700;6.236;2022-07-23T11:15:11;24.30;86.60
56727;DHT22;42609;52.700;6.236;2022-07-23T11:20:19;24.60;85.20
56727;DHT22;42609;52.700;6.236;2022-07-23T11:25:27;24.80;84.00
56727;DHT22;42609;52.700;6.236;2022-07-23T11:28:07;24.80;83.30
56727;DHT22;42609;52.700;6.236;2022-07-23T11:35:34;25.00;83.10
56727;DHT22;42609;52.700;6.236;2022-07-23T11:38:13;25.00;82.80
56727;DHT22;42609;52.700;6.236;2022-07-23T11:40:38;24.80;81.40
56727;DHT22;42609;52.700;6.236;2022-07-23T11:43:07;24.70;82.10
56727;DHT22;42609;52.700;6.236;2022-07-23T11:45:41;24.50;83.20
56727;DHT22;42609;52.700;6.236;2022-07-23T11:48:14;24.60;83.40
56727;DHT22;42609;52.700;6.236;2022-07-23T11:50:40;24.90;84.00
56727;DHT22;42609;52.700;6.236;2022-07-23T11:53:06;25.00;82.80
56727;DHT22;42609;52.700;6.236;2022-07-23T11:55:32;25.10;82.10
56727;DHT22;42609;52.700;6.236;2022-07-23T11:57:58;25.10;82.30
56727;DHT22;42609;52.700;6.236;2022-07-23T12:00:25;24.90;81.80
56727;DHT22;42609;52.700;6.236;2022-07-23T12:02:54;24.80;81.60
56727;DHT22;42609;52.700;6.236;2022-07-23T12:05:25;24.60;82.00
56727;DHT22;42609;52.700;6.236;2022-07-23T12:07:53;24.50;81.90
56727;DHT22;42609;52.700;6.236;2022-07-23T12:10:22;24.40;82.70
56727;DHT22;42609;52.700;6.236;2022-07-23T12:12:51;24.60;84.00
56727;DHT22;42609;52.700;6.236;2022-07-23T12:15:19;24.80;84.20
56727;DHT22;42609;52.700;6.236;2022-07-23T12:17:47;24.50;83.10
56727;DHT22;42609;52.700;6.236;2022-07-23T12:20:19;24.40;83.30
56727;DHT22;42609;52.700;6.236;2022-07-23T12:22:47;24.30;84.30
56727;DHT22;42609;52.700;6.236;2022-07-23T12:25:21;24.30;85.10
56727;DHT22;42609;52.700;6.236;2022-07-23T12:28:02;24.50;84.80
56727;DHT22;42609;52.700;6.236;2022-07-23T12:30:40;24.70;84.50
56727;DHT22;42609;52.700;6.236;2022-07-23T12:33:08;24.70;83.60
56727;DHT22;42609;52.700;6.236;2022-07-23T12:35:36;25.00;82.60
56727;DHT22;42609;52.700;6.236;2022-07-23T12:38:14;25.10;81.90
56727;DHT22;42609;52.700;6.236;2022-07-23T12:40:53;25.20;82.40
56727;DHT22;42609;52.700;6.236;2022-07-23T12:43:29;25.30;82.90
56727;DHT22;42609;52.700;6.236;2022-07-23T12:51:21;25.30;81.60
56727;DHT22;42609;52.700;6.236;2022-07-23T12:53:50;25.30;81.40
56727;DHT22;42609;52.700;6.236;2022-07-23T12:56:30;25.40;82.70
56727;DHT22;42609;52.700;6.236;2022-07-23T12:58:58;25.50;83.10
56727;DHT22;42609;52.700;6.236;2022-07-23T13:01:26;25.40;81.90
56727;DHT22;42609;52.700;6.236;2022-07-23T13:06:28;25.50;81.70
56727;DHT22;42609;52.700;6.236;2022-07-23T13:08:54;25.60;81.60
56727;DHT22;42609;52.700;6.236;2022-07-23T13:11:19;25.50;82.10
56727;DHT22;42609;52.700;6.236;2022-07-23T13:13:45;25.40;81.90
56727;DHT22;42609;52.700;6.236;2022-07-23T13:16:10;25.20;81.80
56727;DHT22;42609;52.700;6.236;2022-07-23T13:18:36;25.00;82.00
56727;DHT22;42609;52.700;6.236;2022-07-23T13:21:02;24.90;82.40
56727;DHT22;42609;52.700;6.236;2022-07-23T13:23:27;24.80;83.20
56727;DHT22;42609;52.700;6.236;2022-07-23T13:25:53;24.50;83.30
56727;DHT22;42609;52.700;6.236;2022-07-23T13:28:20;24.50;83.70
56727;DHT22;42609;52.700;6.236;2022-07-23T13:30:46;24.60;84.40
56727;DHT22;42609;52.700;6.236;2022-07-23T13:33:15;24.60;84.30
56727;DHT22;42609;52.700;6.236;2022-07-23T13:35:41;24.50;84.10
56727;DHT22;42609;52.700;6.236;2022-07-23T13:38:06;24.50;84.40
56727;DHT22;42609;52.700;6.236;2022-07-23T13:40:37;24.50;84.90
56727;DHT22;42609;52.700;6.236;2022-07-23T13:43:08;24.60;84.80
56727;DHT22;42609;52.700;6.236;2022-07-23T13:45:34;24.80;84.60
56727;DHT22;42609;52.700;6.236;2022-07-23T13:48:00;24.80;84.90
56727;DHT22;42609;52.700;6.236;2022-07-23T13:50:26;25.00;84.70
56727;DHT22;42609;52.700;6.236;2022-07-23T13:52:51;24.90;84.10
56727;DHT22;42609;52.700;6.236;2022-07-23T13:55:17;25.00;84.20
56727;DHT22;42609;52.700;6.236;2022-07-23T13:57:43;25.10;83.40
56727;DHT22;42609;52.700;6.236;2022-07-23T14:00:11;25.10;83.10
56727;DHT22;42609;52.700;6.236;2022-07-23T14:02:39;25.20;83.40
56727;DHT22;42609;52.700;6.236;2022-07-23T14:05:07;25.40;84.70
56727;DHT22;42609;52.700;6.236;2022-07-23T14:07:34;25.40;83.40
56727;DHT22;42609;52.700;6.236;2022-07-23T14:10:00;25.30;82.80
56727;DHT22;42609;52.700;6.236;2022-07-23T14:12:26;25.40;83.50
56727;DHT22;42609;52.700;6.236;2022-07-23T14:14:52;25.40;82.70
56727;DHT22;42609;52.700;6.236;2022-07-23T14:17:18;25.30;82.30
56727;DHT22;42609;52.700;6.236;2022-07-23T14:19:43;25.20;82.00
56727;DHT22;42609;52.700;6.236;2022-07-23T14:22:09;25.30;82.00
56727;DHT22;42609;52.700;6.236;2022-07-23T14:24:35;25.40;81.70
56727;DHT22;42609;52.700;6.236;2022-07-23T14:27:01;25.50;82.60
56727;DHT22;42609;52.700;6.236;2022-07-23T14:29:27;25.70;82.80
56727;DHT22;42609;52.700;6.236;2022-07-23T14:31:53;25.70;82.20
56727;DHT22;42609;52.700;6.236;2022-07-23T14:34:18;25.70;82.10
56727;DHT22;42609;52.700;6.236;2022-07-23T14:36:44;25.80;81.70
56727;DHT22;42609;52.700;6.236;2022-07-23T14:39:10;25.80;81.70
56727;DHT22;42609;52.700;6.236;2022-07-23T14:41:37;26.00;81.20
56727;DHT22;42609;52.700;6.236;2022-07-23T14:44:03;26.00;81.00
56727;DHT22;42609;52.700;6.236;2022-07-23T14:46:29;25.80;80.10
56727;DHT22;42609;52.700;6.236;2022-07-23T14:48:54;25.70;79.40
56727;DHT22;42609;52.700;6.236;2022-07-23T14:51:20;25.70;80.10
56727;DHT22;42609;52.700;6.236;2022-07-23T14:53:46;25.90;80.90
56727;DHT22;42609;52.700;6.236;2022-07-23T14:56:12;26.10;80.50
56727;DHT22;42609;52.700;6.236;2022-07-23T14:58:39;26.30;80.50
56727;DHT22;42609;52.700;6.236;2022-07-23T15:01:05;26.30;79.50
56727;DHT22;42609;52.700;6.236;2022-07-23T15:03:30;26.40;78.80
56727;DHT22;42609;52.700;6.236;2022-07-23T15:05:56;26.20;79.10
56727;DHT22;42609;52.700;6.236;2022-07-23T15:08:22;26.10;79.90
56727;DHT22;42609;52.700;6.236;2022-07-23T15:10:47;26.00;79.60
56727;DHT22;42609;52.700;6.236;2022-07-23T15:13:13;25.90;78.90
56727;DHT22;42609;52.700;6.236;2022-07-23T15:15:39;26.20;79.00
56727;DHT22;42609;52.700;6.236;2022-07-23T15:18:04;26.30;79.90
56727;DHT22;42609;52.700;6.236;2022-07-23T15:20:30;26.40;79.30
56727;DHT22;42609;52.700;6.236;2022-07-23T15:22:56;26.50;79.40
56727;DHT22;42609;52.700;6.236;2022-07-23T15:25:23;26.50;79.00
56727;DHT22;42609;52.700;6.236;2022-07-23T15:27:49;26.50;79.20
56727;DHT22;42609;52.700;6.236;2022-07-23T15:30:14;26.60;78.90
56727;DHT22;42609;52.700;6.236;2022-07-23T15:32:40;26.70;78.60
56727;DHT22;42609;52.700;6.236;2022-07-23T15:35:06;26.70;79.30
56727;DHT22;42609;52.700;6.236;2022-07-23T15:37:33;26.70;79.30
56727;DHT22;42609;52.700;6.236;2022-07-23T15:39:59;26.70;79.60
56727;DHT22;42609;52.700;6.236;2022-07-23T15:42:25;26.80;78.70
56727;DHT22;42609;52.700;6.236;2022-07-23T15:44:50;26.80;77.80
56727;DHT22;42609;52.700;6.236;2022-07-23T15:47:17;26.90;78.20
56727;DHT22;42609;52.700;6.236;2022-07-23T15:49:44;27.00;78.50
56727;DHT22;42609;52.700;6.236;2022-07-23T15:52:10;27.00;77.60
56727;DHT22;42609;52.700;6.236;2022-07-23T15:54:36;27.10;77.20
56727;DHT22;42609;52.700;6.236;2022-07-23T15:57:02;27.00;77.20
56727;DHT22;42609;52.700;6.236;2022-07-23T15:59:28;27.10;76.90
56727;DHT22;42609;52.700;6.236;2022-07-23T16:01:54;27.00;76.20